Main page
METAR-TAF:

METAR-TAF

Airports :

Rabat, Morocco

Rabat–Salé Airport

latitude: 34-03N, longitude: 006-46W, elevation: 84 m

Current weather observation

The report was made 29 minutes ago, at 07:00 UTC
Wind 4 kt from the South, varying between Southeast and South
Temperature 9°C
Humidity 66%
Pressure 1016 hPa
Visibility 10 km or more
no clouds below 1500 m and no cumulonimbus

METAR: GMME 220700Z 17004KT 130V190 CAVOK 09/03 Q1016 NOSIG

Time: 07:29 (07:29 UTC)

Forecast

The report was made 2 hours and 29 minutes ago, at 05:00 UTC
Forecast valid from 22 at 06 UTC to 23 at 12 UTC
Wind 10 kt from the Southeast
Visibility: 8000 m
Scattered clouds at a height of 1600 ft
Becoming
from 22 at 12 UTC to 22 at 15 UTC
Wind 10 kt from the Northwest

TAF: GMME 220500Z 2206/2312 14010KT 8000 SCT016 BECMG 2212/2215 32010KT

Weather observations and forecasts of more than 4000 airports (METAR and TAF reports).

The available stations are represented by yellow and red dots on the map.

Hover mouse over dot to see the name of the station.

Then click to see weather observations and forecasts.

To change the map : click on the green buttons with a black cross to zoom in, on the green button with a dash to zoom out, or on the green arrows for adjacent maps.


METAR-TAF: